sensor_id;sensor_type;location;lat;lon;timestamp;pressure;altitude;pressure_sealevel;temperature;humidity
62632;BME280;48703;51.248;-0.546;2023-07-29T00:02:12;100016;;;17.08;89.27
62632;BME280;48703;51.248;-0.546;2023-07-29T00:05:14;100027;;;17.06;88.92
62632;BME280;48703;51.248;-0.546;2023-07-29T00:08:16;100032;;;17.02;89.04
62632;BME280;48703;51.248;-0.546;2023-07-29T00:11:18;100029;;;17.00;88.74
62632;BME280;48703;51.248;-0.546;2023-07-29T00:14:20;100028;;;16.99;88.38
62632;BME280;48703;51.248;-0.546;2023-07-29T00:17:22;100028;;;16.95;88.70
62632;BME280;48703;51.248;-0.546;2023-07-29T00:20:24;100029;;;16.93;88.63
62632;BME280;48703;51.248;-0.546;2023-07-29T00:23:25;100030;;;16.92;88.68
62632;BME280;48703;51.248;-0.546;2023-07-29T00:26:27;100034;;;16.89;89.09
62632;BME280;48703;51.248;-0.546;2023-07-29T00:29:29;100032;;;16.89;88.93
62632;BME280;48703;51.248;-0.546;2023-07-29T00:32:31;100030;;;16.89;88.81
62632;BME280;48703;51.248;-0.546;2023-07-29T00:35:33;100024;;;16.89;88.61
62632;BME280;48703;51.248;-0.546;2023-07-29T00:38:35;100023;;;16.86;88.63
62632;BME280;48703;51.248;-0.546;2023-07-29T00:41:37;100020;;;16.84;88.46
62632;BME280;48703;51.248;-0.546;2023-07-29T00:44:39;100022;;;16.83;88.20
62632;BME280;48703;51.248;-0.546;2023-07-29T00:47:40;100020;;;16.80;88.33
62632;BME280;48703;51.248;-0.546;2023-07-29T00:50:42;100018;;;16.77;88.35
62632;BME280;48703;51.248;-0.546;2023-07-29T00:53:44;100017;;;16.74;88.33
62632;BME280;48703;51.248;-0.546;2023-07-29T00:56:46;100015;;;16.73;88.44
62632;BME280;48703;51.248;-0.546;2023-07-29T00:59:48;100010;;;16.69;88.59
62632;BME280;48703;51.248;-0.546;2023-07-29T01:02:52;100007;;;16.67;88.71
62632;BME280;48703;51.248;-0.546;2023-07-29T01:05:56;100002;;;16.65;88.83
62632;BME280;48703;51.248;-0.546;2023-07-29T01:08:55;100001;;;16.62;88.87
62632;BME280;48703;51.248;-0.546;2023-07-29T01:11:58;100005;;;16.60;89.30
62632;BME280;48703;51.248;-0.546;2023-07-29T01:14:59;99999;;;16.59;89.26
62632;BME280;48703;51.248;-0.546;2023-07-29T01:18:02;99994;;;16.58;89.07
62632;BME280;48703;51.248;-0.546;2023-07-29T01:21:02;99992;;;16.57;89.02
62632;BME280;48703;51.248;-0.546;2023-07-29T01:24:03;99992;;;16.54;89.25
62632;BME280;48703;51.248;-0.546;2023-07-29T01:27:05;99989;;;16.53;89.13
62632;BME280;48703;51.248;-0.546;2023-07-29T01:30:07;99986;;;16.51;89.47
62632;BME280;48703;51.248;-0.546;2023-07-29T01:33:09;99984;;;16.49;89.45
62632;BME280;48703;51.248;-0.546;2023-07-29T01:36:12;99981;;;16.47;89.70
62632;BME280;48703;51.248;-0.546;2023-07-29T01:39:12;99975;;;16.46;89.65
62632;BME280;48703;51.248;-0.546;2023-07-29T01:42:14;99976;;;16.45;89.63
62632;BME280;48703;51.248;-0.546;2023-07-29T01:45:16;99973;;;16.44;89.91
62632;BME280;48703;51.248;-0.546;2023-07-29T01:48:18;99974;;;16.42;89.82
62632;BME280;48703;51.248;-0.546;2023-07-29T01:51:20;99975;;;16.41;90.15
62632;BME280;48703;51.248;-0.546;2023-07-29T01:54:22;99975;;;16.40;89.85
62632;BME280;48703;51.248;-0.546;2023-07-29T01:57:24;99980;;;16.40;90.05
62632;BME280;48703;51.248;-0.546;2023-07-29T02:00:25;99987;;;16.40;90.07
62632;BME280;48703;51.248;-0.546;2023-07-29T02:03:27;99989;;;16.39;90.38
62632;BME280;48703;51.248;-0.546;2023-07-29T02:06:29;99984;;;16.37;90.53
62632;BME280;48703;51.248;-0.546;2023-07-29T02:09:31;99991;;;16.37;90.59
62632;BME280;48703;51.248;-0.546;2023-07-29T02:12:33;99985;;;16.36;90.14
62632;BME280;48703;51.248;-0.546;2023-07-29T02:15:35;99983;;;16.38;90.40
62632;BME280;48703;51.248;-0.546;2023-07-29T02:18:37;99978;;;16.39;90.20
62632;BME280;48703;51.248;-0.546;2023-07-29T02:21:39;99972;;;16.40;90.13
62632;BME280;48703;51.248;-0.546;2023-07-29T02:24:41;99971;;;16.40;90.39
62632;BME280;48703;51.248;-0.546;2023-07-29T02:27:42;99970;;;16.39;90.54
62632;BME280;48703;51.248;-0.546;2023-07-29T02:30:44;99966;;;16.38;90.71
62632;BME280;48703;51.248;-0.546;2023-07-29T02:33:46;99962;;;16.37;90.44
62632;BME280;48703;51.248;-0.546;2023-07-29T02:36:48;99957;;;16.38;90.85
62632;BME280;48703;51.248;-0.546;2023-07-29T02:39:50;99960;;;16.38;90.42
62632;BME280;48703;51.248;-0.546;2023-07-29T02:42:52;99957;;;16.38;90.74
62632;BME280;48703;51.248;-0.546;2023-07-29T02:45:54;99951;;;16.38;90.59
62632;BME280;48703;51.248;-0.546;2023-07-29T02:48:55;99942;;;16.38;90.53
62632;BME280;48703;51.248;-0.546;2023-07-29T02:51:57;99942;;;16.38;90.45
62632;BME280;48703;51.248;-0.546;2023-07-29T02:54:59;99943;;;16.38;90.83
62632;BME280;48703;51.248;-0.546;2023-07-29T02:58:01;99939;;;16.37;91.06
62632;BME280;48703;51.248;-0.546;2023-07-29T03:01:03;99940;;;16.36;91.14
62632;BME280;48703;51.248;-0.546;2023-07-29T03:04:05;99944;;;16.34;91.82
62632;BME280;48703;51.248;-0.546;2023-07-29T03:07:07;99943;;;16.33;91.67
62632;BME280;48703;51.248;-0.546;2023-07-29T03:10:09;99935;;;16.33;91.80
62632;BME280;48703;51.248;-0.546;2023-07-29T03:13:10;99933;;;16.32;91.46
62632;BME280;48703;51.248;-0.546;2023-07-29T03:16:13;99934;;;16.31;91.64
62632;BME280;48703;51.248;-0.546;2023-07-29T03:19:14;99938;;;16.31;91.63
62632;BME280;48703;51.248;-0.546;2023-07-29T03:22:16;99941;;;16.30;91.96
62632;BME280;48703;51.248;-0.546;2023-07-29T03:25:18;99945;;;16.29;92.27
62632;BME280;48703;51.248;-0.546;2023-07-29T03:28:20;99946;;;16.28;91.53
62632;BME280;48703;51.248;-0.546;2023-07-29T03:31:22;99946;;;16.29;92.30
62632;BME280;48703;51.248;-0.546;2023-07-29T03:34:23;99948;;;16.26;92.65
62632;BME280;48703;51.248;-0.546;2023-07-29T03:37:25;99947;;;16.25;92.75
62632;BME280;48703;51.248;-0.546;2023-07-29T03:40:27;99946;;;16.25;92.29
62632;BME280;48703;51.248;-0.546;2023-07-29T03:43:29;99954;;;16.24;92.55
62632;BME280;48703;51.248;-0.546;2023-07-29T03:46:31;99962;;;16.23;92.61
62632;BME280;48703;51.248;-0.546;2023-07-29T03:49:33;99960;;;16.23;92.65
62632;BME280;48703;51.248;-0.546;2023-07-29T03:52:35;99963;;;16.23;92.12
62632;BME280;48703;51.248;-0.546;2023-07-29T03:55:37;99968;;;16.24;92.48
62632;BME280;48703;51.248;-0.546;2023-07-29T03:58:38;99970;;;16.24;92.94
62632;BME280;48703;51.248;-0.546;2023-07-29T04:01:40;99974;;;16.23;93.10
62632;BME280;48703;51.248;-0.546;2023-07-29T04:04:42;99968;;;16.22;93.03
62632;BME280;48703;51.248;-0.546;2023-07-29T04:07:44;99967;;;16.21;92.12
62632;BME280;48703;51.248;-0.546;2023-07-29T04:10:46;99969;;;16.21;92.16
62632;BME280;48703;51.248;-0.546;2023-07-29T04:13:48;99956;;;16.22;92.20
62632;BME280;48703;51.248;-0.546;2023-07-29T04:16:50;99962;;;16.21;92.33
62632;BME280;48703;51.248;-0.546;2023-07-29T04:19:51;99956;;;16.21;91.98
62632;BME280;48703;51.248;-0.546;2023-07-29T04:22:53;99945;;;16.21;91.91
62632;BME280;48703;51.248;-0.546;2023-07-29T04:25:55;99945;;;16.20;92.08
62632;BME280;48703;51.248;-0.546;2023-07-29T04:28:57;99956;;;16.20;92.22
62632;BME280;48703;51.248;-0.546;2023-07-29T04:31:59;99951;;;16.20;92.08
62632;BME280;48703;51.248;-0.546;2023-07-29T04:35:01;99958;;;16.19;92.08
62632;BME280;48703;51.248;-0.546;2023-07-29T04:38:03;99957;;;16.18;92.39
62632;BME280;48703;51.248;-0.546;2023-07-29T04:41:05;99951;;;16.18;92.33
62632;BME280;48703;51.248;-0.546;2023-07-29T04:44:06;99956;;;16.18;92.47
62632;BME280;48703;51.248;-0.546;2023-07-29T04:47:08;99957;;;16.16;93.09
62632;BME280;48703;51.248;-0.546;2023-07-29T04:50:10;99956;;;16.15;92.90
62632;BME280;48703;51.248;-0.546;2023-07-29T04:53:12;99957;;;16.14;92.96
62632;BME280;48703;51.248;-0.546;2023-07-29T04:56:14;99956;;;16.15;92.91
62632;BME280;48703;51.248;-0.546;2023-07-29T04:59:16;99957;;;16.15;92.81
62632;BME280;48703;51.248;-0.546;2023-07-29T05:02:18;99955;;;16.15;92.81
62632;BME280;48703;51.248;-0.546;2023-07-29T05:05:20;99946;;;16.15;92.93
62632;BME280;48703;51.248;-0.546;2023-07-29T05:08:21;99945;;;16.14;92.94
62632;BME280;48703;51.248;-0.546;2023-07-29T05:11:23;99951;;;16.14;92.76
62632;BME280;48703;51.248;-0.546;2023-07-29T05:14:25;99954;;;16.14;92.80
62632;BME280;48703;51.248;-0.546;2023-07-29T05:17:27;99953;;;16.14;92.66
62632;BME280;48703;51.248;-0.546;2023-07-29T05:20:29;99954;;;16.13;92.82
62632;BME280;48703;51.248;-0.546;2023-07-29T05:23:31;99958;;;16.14;93.15
62632;BME280;48703;51.248;-0.546;2023-07-29T05:26:33;99956;;;16.15;92.93
62632;BME280;48703;51.248;-0.546;2023-07-29T05:29:35;99959;;;16.16;92.94
62632;BME280;48703;51.248;-0.546;2023-07-29T05:32:36;99961;;;16.15;92.80
62632;BME280;48703;51.248;-0.546;2023-07-29T05:35:38;99960;;;16.15;92.57
62632;BME280;48703;51.248;-0.546;2023-07-29T05:38:40;99965;;;16.16;92.70
62632;BME280;48703;51.248;-0.546;2023-07-29T05:41:42;99965;;;16.17;92.79
62632;BME280;48703;51.248;-0.546;2023-07-29T05:44:44;99965;;;16.19;92.89
62632;BME280;48703;51.248;-0.546;2023-07-29T05:47:46;99966;;;16.20;92.68
62632;BME280;48703;51.248;-0.546;2023-07-29T05:50:48;99964;;;16.20;92.48
62632;BME280;48703;51.248;-0.546;2023-07-29T05:53:50;99965;;;16.21;92.40
62632;BME280;48703;51.248;-0.546;2023-07-29T05:56:51;99968;;;16.22;92.35
62632;BME280;48703;51.248;-0.546;2023-07-29T05:59:53;99968;;;16.23;92.53
62632;BME280;48703;51.248;-0.546;2023-07-29T06:02:55;99969;;;16.27;92.53
62632;BME280;48703;51.248;-0.546;2023-07-29T06:05:57;99967;;;16.29;92.19
62632;BME280;48703;51.248;-0.546;2023-07-29T06:08:59;99972;;;16.31;91.96
62632;BME280;48703;51.248;-0.546;2023-07-29T06:12:01;99973;;;16.33;92.17
62632;BME280;48703;51.248;-0.546;2023-07-29T06:15:04;99973;;;16.34;91.83
62632;BME280;48703;51.248;-0.546;2023-07-29T06:18:05;99971;;;16.35;92.10
62632;BME280;48703;51.248;-0.546;2023-07-29T06:21:06;99969;;;16.37;91.88
62632;BME280;48703;51.248;-0.546;2023-07-29T06:24:08;99968;;;16.38;91.75
62632;BME280;48703;51.248;-0.546;2023-07-29T06:27:10;99962;;;16.41;91.58
62632;BME280;48703;51.248;-0.546;2023-07-29T06:30:12;99959;;;16.43;91.79
62632;BME280;48703;51.248;-0.546;2023-07-29T06:33:14;99960;;;16.47;92.70
62632;BME280;48703;51.248;-0.546;2023-07-29T06:36:16;99965;;;16.49;92.48
62632;BME280;48703;51.248;-0.546;2023-07-29T06:39:18;99970;;;16.51;92.19
62632;BME280;48703;51.248;-0.546;2023-07-29T06:42:20;99970;;;16.54;92.06
62632;BME280;48703;51.248;-0.546;2023-07-29T06:45:21;99969;;;16.59;92.32
62632;BME280;48703;51.248;-0.546;2023-07-29T06:48:23;99966;;;16.63;92.07
62632;BME280;48703;51.248;-0.546;2023-07-29T06:51:25;99964;;;16.66;92.09
62632;BME280;48703;51.248;-0.546;2023-07-29T06:54:27;99964;;;16.68;92.32
62632;BME280;48703;51.248;-0.546;2023-07-29T06:57:29;99967;;;16.69;91.84
62632;BME280;48703;51.248;-0.546;2023-07-29T07:00:31;99969;;;16.70;92.45
62632;BME280;48703;51.248;-0.546;2023-07-29T07:03:33;99970;;;16.70;93.15
62632;BME280;48703;51.248;-0.546;2023-07-29T07:06:35;99970;;;16.69;93.17
62632;BME280;48703;51.248;-0.546;2023-07-29T07:09:36;99971;;;16.70;93.41
62632;BME280;48703;51.248;-0.546;2023-07-29T07:12:38;99968;;;16.75;93.59
62632;BME280;48703;51.248;-0.546;2023-07-29T07:15:40;99969;;;16.79;93.79
62632;BME280;48703;51.248;-0.546;2023-07-29T07:18:42;99967;;;16.81;93.44
62632;BME280;48703;51.248;-0.546;2023-07-29T07:21:44;99971;;;16.82;93.59
62632;BME280;48703;51.248;-0.546;2023-07-29T07:24:46;99976;;;16.79;94.76
62632;BME280;48703;51.248;-0.546;2023-07-29T07:27:48;99980;;;16.77;95.87
62632;BME280;48703;51.248;-0.546;2023-07-29T07:30:50;99983;;;16.72;95.90
62632;BME280;48703;51.248;-0.546;2023-07-29T07:33:51;99983;;;16.67;95.66
62632;BME280;48703;51.248;-0.546;2023-07-29T07:36:53;99986;;;16.63;97.95
62632;BME280;48703;51.248;-0.546;2023-07-29T07:39:55;99988;;;16.60;96.98
62632;BME280;48703;51.248;-0.546;2023-07-29T07:42:57;99990;;;16.60;98.07
62632;BME280;48703;51.248;-0.546;2023-07-29T07:45:59;99989;;;16.59;97.95
62632;BME280;48703;51.248;-0.546;2023-07-29T07:49:01;99988;;;16.61;97.81
62632;BME280;48703;51.248;-0.546;2023-07-29T07:52:03;99989;;;16.64;97.51
62632;BME280;48703;51.248;-0.546;2023-07-29T07:55:05;99988;;;16.66;97.56
62632;BME280;48703;51.248;-0.546;2023-07-29T07:58:06;99974;;;16.70;97.14
62632;BME280;48703;51.248;-0.546;2023-07-29T08:01:08;99972;;;16.77;98.22
62632;BME280;48703;51.248;-0.546;2023-07-29T08:04:10;99970;;;16.83;97.32
62632;BME280;48703;51.248;-0.546;2023-07-29T08:07:12;99968;;;16.88;96.98
62632;BME280;48703;51.248;-0.546;2023-07-29T08:10:14;99968;;;16.92;96.37
62632;BME280;48703;51.248;-0.546;2023-07-29T08:13:16;99974;;;16.90;96.53
62632;BME280;48703;51.248;-0.546;2023-07-29T08:16:18;99977;;;16.90;95.62
62632;BME280;48703;51.248;-0.546;2023-07-29T08:19:19;99980;;;16.90;96.48
62632;BME280;48703;51.248;-0.546;2023-07-29T08:22:21;99985;;;16.89;95.39
62632;BME280;48703;51.248;-0.546;2023-07-29T08:25:23;99988;;;16.89;95.94
62632;BME280;48703;51.248;-0.546;2023-07-29T08:28:25;99990;;;16.87;95.25
62632;BME280;48703;51.248;-0.546;2023-07-29T08:31:27;99993;;;16.87;95.14
62632;BME280;48703;51.248;-0.546;2023-07-29T08:34:29;99996;;;16.90;96.93
62632;BME280;48703;51.248;-0.546;2023-07-29T08:37:31;100000;;;16.95;96.21
62632;BME280;48703;51.248;-0.546;2023-07-29T08:40:34;100000;;;16.98;95.25
62632;BME280;48703;51.248;-0.546;2023-07-29T08:43:34;99997;;;17.05;94.77
62632;BME280;48703;51.248;-0.546;2023-07-29T08:46:36;99997;;;17.15;96.31
62632;BME280;48703;51.248;-0.546;2023-07-29T08:49:38;99999;;;17.22;95.40
62632;BME280;48703;51.248;-0.546;2023-07-29T08:52:40;100002;;;17.28;94.75
62632;BME280;48703;51.248;-0.546;2023-07-29T08:55:42;100002;;;17.29;92.51
62632;BME280;48703;51.248;-0.546;2023-07-29T08:58:44;99998;;;17.27;91.34
62632;BME280;48703;51.248;-0.546;2023-07-29T09:01:46;99998;;;17.25;90.91
62632;BME280;48703;51.248;-0.546;2023-07-29T09:04:47;100004;;;17.23;89.88
62632;BME280;48703;51.248;-0.546;2023-07-29T09:07:49;100005;;;17.22;90.03
62632;BME280;48703;51.248;-0.546;2023-07-29T09:10:51;100004;;;17.23;89.74
62632;BME280;48703;51.248;-0.546;2023-07-29T09:13:53;100007;;;17.23;89.12
62632;BME280;48703;51.248;-0.546;2023-07-29T09:16:55;100008;;;17.27;89.40
62632;BME280;48703;51.248;-0.546;2023-07-29T09:19:57;100011;;;17.31;89.37
62632;BME280;48703;51.248;-0.546;2023-07-29T09:22:59;100011;;;17.33;88.69
62632;BME280;48703;51.248;-0.546;2023-07-29T09:26:01;100014;;;17.33;87.03
62632;BME280;48703;51.248;-0.546;2023-07-29T09:29:02;100012;;;17.35;87.26
62632;BME280;48703;51.248;-0.546;2023-07-29T09:32:20;100007;;;17.35;87.90
62632;BME280;48703;51.248;-0.546;2023-07-29T09:35:09;100009;;;17.33;88.19
62632;BME280;48703;51.248;-0.546;2023-07-29T09:38:08;100001;;;17.38;88.77
62632;BME280;48703;51.248;-0.546;2023-07-29T09:41:11;100007;;;17.42;86.95
62632;BME280;48703;51.248;-0.546;2023-07-29T09:44:12;100006;;;17.44;86.70
62632;BME280;48703;51.248;-0.546;2023-07-29T09:47:21;100008;;;17.51;87.29
62632;BME280;48703;51.248;-0.546;2023-07-29T09:50:16;100006;;;17.57;85.16
62632;BME280;48703;51.248;-0.546;2023-07-29T09:53:17;100006;;;17.62;84.63
62632;BME280;48703;51.248;-0.546;2023-07-29T09:56:23;100003;;;17.70;85.92
62632;BME280;48703;51.248;-0.546;2023-07-29T09:59:21;100000;;;17.83;85.94
62632;BME280;48703;51.248;-0.546;2023-07-29T10:02:23;99997;;;17.95;84.47
62632;BME280;48703;51.248;-0.546;2023-07-29T10:05:25;100000;;;18.05;82.82
62632;BME280;48703;51.248;-0.546;2023-07-29T10:08:27;100011;;;18.10;83.24
62632;BME280;48703;51.248;-0.546;2023-07-29T10:11:29;100011;;;18.07;80.89
62632;BME280;48703;51.248;-0.546;2023-07-29T10:14:31;100014;;;18.02;81.19
62632;BME280;48703;51.248;-0.546;2023-07-29T10:17:33;100017;;;17.98;82.42
62632;BME280;48703;51.248;-0.546;2023-07-29T10:20:34;100015;;;17.94;82.13
62632;BME280;48703;51.248;-0.546;2023-07-29T10:23:37;100018;;;17.95;82.12
62632;BME280;48703;51.248;-0.546;2023-07-29T10:26:38;100016;;;17.99;82.63
62632;BME280;48703;51.248;-0.546;2023-07-29T10:29:40;100013;;;18.06;82.66
62632;BME280;48703;51.248;-0.546;2023-07-29T10:32:42;100014;;;18.16;83.71
62632;BME280;48703;51.248;-0.546;2023-07-29T10:35:44;100011;;;18.20;79.19
62632;BME280;48703;51.248;-0.546;2023-07-29T10:38:45;100002;;;18.24;78.12
62632;BME280;48703;51.248;-0.546;2023-07-29T10:41:55;100003;;;18.27;76.55
62632;BME280;48703;51.248;-0.546;2023-07-29T10:44:54;100007;;;18.33;76.73
62632;BME280;48703;51.248;-0.546;2023-07-29T10:47:51;100010;;;18.41;77.83
62632;BME280;48703;51.248;-0.546;2023-07-29T10:50:57;100006;;;18.49;76.98
62632;BME280;48703;51.248;-0.546;2023-07-29T10:53:55;100008;;;18.63;77.35
62632;BME280;48703;51.248;-0.546;2023-07-29T10:56:57;100012;;;18.81;75.47
62632;BME280;48703;51.248;-0.546;2023-07-29T10:59:59;100009;;;18.91;76.03
62632;BME280;48703;51.248;-0.546;2023-07-29T11:03:01;100012;;;18.94;76.34
62632;BME280;48703;51.248;-0.546;2023-07-29T11:06:04;100016;;;18.93;74.74
62632;BME280;48703;51.248;-0.546;2023-07-29T11:09:21;100019;;;18.90;75.86
62632;BME280;48703;51.248;-0.546;2023-07-29T11:12:23;100023;;;18.91;76.25
62632;BME280;48703;51.248;-0.546;2023-07-29T11:15:12;100023;;;18.90;76.23
62632;BME280;48703;51.248;-0.546;2023-07-29T11:18:10;100027;;;18.86;74.64
62632;BME280;48703;51.248;-0.546;2023-07-29T11:21:12;100025;;;18.83;76.29
62632;BME280;48703;51.248;-0.546;2023-07-29T11:24:16;100032;;;18.84;78.74
62632;BME280;48703;51.248;-0.546;2023-07-29T11:27:15;100032;;;18.86;76.62
62632;BME280;48703;51.248;-0.546;2023-07-29T11:30:17;100034;;;18.91;76.69
62632;BME280;48703;51.248;-0.546;2023-07-29T11:33:20;100029;;;18.95;74.78
62632;BME280;48703;51.248;-0.546;2023-07-29T11:36:21;100033;;;18.98;73.78
62632;BME280;48703;51.248;-0.546;2023-07-29T11:39:23;100035;;;19.05;72.58
62632;BME280;48703;51.248;-0.546;2023-07-29T11:42:25;100027;;;19.09;73.76
62632;BME280;48703;51.248;-0.546;2023-07-29T11:45:27;100021;;;19.11;74.29
62632;BME280;48703;51.248;-0.546;2023-07-29T11:48:31;100024;;;19.14;74.10
62632;BME280;48703;51.248;-0.546;2023-07-29T11:51:30;100022;;;19.18;73.90
62632;BME280;48703;51.248;-0.546;2023-07-29T11:54:32;100025;;;19.22;72.50
62632;BME280;48703;51.248;-0.546;2023-07-29T11:57:34;100023;;;19.27;72.37
62632;BME280;48703;51.248;-0.546;2023-07-29T12:00:37;100025;;;19.32;70.97
62632;BME280;48703;51.248;-0.546;2023-07-29T12:03:38;100026;;;19.41;69.84
62632;BME280;48703;51.248;-0.546;2023-07-29T12:06:40;100028;;;19.50;69.39
62632;BME280;48703;51.248;-0.546;2023-07-29T12:09:42;100034;;;19.59;69.41
62632;BME280;48703;51.248;-0.546;2023-07-29T12:12:44;100036;;;19.65;69.33
62632;BME280;48703;51.248;-0.546;2023-07-29T12:15:45;100036;;;19.64;69.22
62632;BME280;48703;51.248;-0.546;2023-07-29T12:18:49;100038;;;19.60;68.40
62632;BME280;48703;51.248;-0.546;2023-07-29T12:21:49;100038;;;19.58;68.34
62632;BME280;48703;51.248;-0.546;2023-07-29T12:24:51;100043;;;19.53;70.05
62632;BME280;48703;51.248;-0.546;2023-07-29T12:27:53;100047;;;19.45;68.63
62632;BME280;48703;51.248;-0.546;2023-07-29T12:30:55;100053;;;19.44;69.92
62632;BME280;48703;51.248;-0.546;2023-07-29T12:33:57;100055;;;19.48;68.15
62632;BME280;48703;51.248;-0.546;2023-07-29T12:36:59;100052;;;19.59;66.81
62632;BME280;48703;51.248;-0.546;2023-07-29T12:40:01;100049;;;19.68;67.94
62632;BME280;48703;51.248;-0.546;2023-07-29T12:43:02;100044;;;19.75;64.73
62632;BME280;48703;51.248;-0.546;2023-07-29T12:46:04;100043;;;19.74;66.74
62632;BME280;48703;51.248;-0.546;2023-07-29T12:49:06;100044;;;19.71;66.44
62632;BME280;48703;51.248;-0.546;2023-07-29T12:52:08;100047;;;19.76;67.45
62632;BME280;48703;51.248;-0.546;2023-07-29T12:55:10;100049;;;19.79;65.84
62632;BME280;48703;51.248;-0.546;2023-07-29T12:58:12;100053;;;19.78;65.54
62632;BME280;48703;51.248;-0.546;2023-07-29T13:01:14;100059;;;19.76;66.81
62632;BME280;48703;51.248;-0.546;2023-07-29T13:04:15;100057;;;19.74;67.07
62632;BME280;48703;51.248;-0.546;2023-07-29T13:07:17;100055;;;19.77;66.33
62632;BME280;48703;51.248;-0.546;2023-07-29T13:10:19;100056;;;19.78;65.47
62632;BME280;48703;51.248;-0.546;2023-07-29T13:13:21;100055;;;19.84;63.90
62632;BME280;48703;51.248;-0.546;2023-07-29T13:16:23;100050;;;19.83;62.10
62632;BME280;48703;51.248;-0.546;2023-07-29T13:19:25;100048;;;19.91;60.60
62632;BME280;48703;51.248;-0.546;2023-07-29T13:22:27;100042;;;19.96;62.78
62632;BME280;48703;51.248;-0.546;2023-07-29T13:25:28;100038;;;19.97;63.40
62632;BME280;48703;51.248;-0.546;2023-07-29T13:28:30;100038;;;19.98;62.64
62632;BME280;48703;51.248;-0.546;2023-07-29T13:31:32;100037;;;20.03;59.76
62632;BME280;48703;51.248;-0.546;2023-07-29T13:34:34;100035;;;20.08;58.24
62632;BME280;48703;51.248;-0.546;2023-07-29T13:37:36;100034;;;20.11;58.00
62632;BME280;48703;51.248;-0.546;2023-07-29T13:40:38;100040;;;20.12;56.82
62632;BME280;48703;51.248;-0.546;2023-07-29T13:43:40;100038;;;20.13;56.27
62632;BME280;48703;51.248;-0.546;2023-07-29T13:46:41;100036;;;20.14;56.06
62632;BME280;48703;51.248;-0.546;2023-07-29T13:49:43;100034;;;20.20;56.93
62632;BME280;48703;51.248;-0.546;2023-07-29T13:52:45;100035;;;20.26;57.59
62632;BME280;48703;51.248;-0.546;2023-07-29T13:55:47;100037;;;20.32;56.01
62632;BME280;48703;51.248;-0.546;2023-07-29T13:58:49;100036;;;20.40;56.74
62632;BME280;48703;51.248;-0.546;2023-07-29T14:01:51;100041;;;20.47;55.96
62632;BME280;48703;51.248;-0.546;2023-07-29T14:04:53;100040;;;20.58;56.43
62632;BME280;48703;51.248;-0.546;2023-07-29T14:07:55;100049;;;20.70;55.46
62632;BME280;48703;51.248;-0.546;2023-07-29T14:10:56;100049;;;20.70;56.21
62632;BME280;48703;51.248;-0.546;2023-07-29T14:13:58;100049;;;20.68;56.48
62632;BME280;48703;51.248;-0.546;2023-07-29T14:17:00;100048;;;20.68;57.11
62632;BME280;48703;51.248;-0.546;2023-07-29T14:20:02;100052;;;20.64;55.83
62632;BME280;48703;51.248;-0.546;2023-07-29T14:23:04;100053;;;20.57;56.80
62632;BME280;48703;51.248;-0.546;2023-07-29T14:26:06;100063;;;20.54;54.66
62632;BME280;48703;51.248;-0.546;2023-07-29T14:29:08;100068;;;20.58;56.71
62632;BME280;48703;51.248;-0.546;2023-07-29T14:32:10;100067;;;20.70;56.58
62632;BME280;48703;51.248;-0.546;2023-07-29T14:35:12;100066;;;20.77;57.70
62632;BME280;48703;51.248;-0.546;2023-07-29T14:38:13;100070;;;20.80;58.79
62632;BME280;48703;51.248;-0.546;2023-07-29T14:41:15;100077;;;20.88;57.95
62632;BME280;48703;51.248;-0.546;2023-07-29T14:44:17;100077;;;20.85;58.08
62632;BME280;48703;51.248;-0.546;2023-07-29T14:47:19;100076;;;20.88;59.54
62632;BME280;48703;51.248;-0.546;2023-07-29T14:50:21;100077;;;20.89;60.93
62632;BME280;48703;51.248;-0.546;2023-07-29T14:53:23;100070;;;20.95;60.32
62632;BME280;48703;51.248;-0.546;2023-07-29T14:56:25;100072;;;21.15;61.77
62632;BME280;48703;51.248;-0.546;2023-07-29T14:59:26;100075;;;21.37;58.95
62632;BME280;48703;51.248;-0.546;2023-07-29T15:02:29;100070;;;21.51;57.66
62632;BME280;48703;51.248;-0.546;2023-07-29T15:05:30;100074;;;21.56;56.83
62632;BME280;48703;51.248;-0.546;2023-07-29T15:08:32;100078;;;21.45;57.25
62632;BME280;48703;51.248;-0.546;2023-07-29T15:11:34;100080;;;21.37;60.30
62632;BME280;48703;51.248;-0.546;2023-07-29T15:14:36;100084;;;21.27;62.75
62632;BME280;48703;51.248;-0.546;2023-07-29T15:17:38;100083;;;21.18;64.12
62632;BME280;48703;51.248;-0.546;2023-07-29T15:20:40;100088;;;21.10;64.81
62632;BME280;48703;51.248;-0.546;2023-07-29T15:23:41;100088;;;21.03;65.60
62632;BME280;48703;51.248;-0.546;2023-07-29T15:26:43;100087;;;20.98;66.64
62632;BME280;48703;51.248;-0.546;2023-07-29T15:29:45;100086;;;20.94;66.50
62632;BME280;48703;51.248;-0.546;2023-07-29T15:32:47;100084;;;20.88;66.58
62632;BME280;48703;51.248;-0.546;2023-07-29T15:35:49;100083;;;20.84;66.79
62632;BME280;48703;51.248;-0.546;2023-07-29T15:38:51;100083;;;20.79;67.14
62632;BME280;48703;51.248;-0.546;2023-07-29T15:41:53;100083;;;20.72;66.57
62632;BME280;48703;51.248;-0.546;2023-07-29T15:44:55;100085;;;20.76;67.01
62632;BME280;48703;51.248;-0.546;2023-07-29T15:47:56;100085;;;20.78;66.51
62632;BME280;48703;51.248;-0.546;2023-07-29T15:50:59;100085;;;20.72;66.55
62632;BME280;48703;51.248;-0.546;2023-07-29T15:54:00;100088;;;20.67;66.60
62632;BME280;48703;51.248;-0.546;2023-07-29T15:57:02;100089;;;20.69;66.80
62632;BME280;48703;51.248;-0.546;2023-07-29T16:00:04;100088;;;20.69;67.00
62632;BME280;48703;51.248;-0.546;2023-07-29T16:03:06;100091;;;20.74;67.50
62632;BME280;48703;51.248;-0.546;2023-07-29T16:06:08;100095;;;20.86;67.68
62632;BME280;48703;51.248;-0.546;2023-07-29T16:09:10;100095;;;20.89;67.05
62632;BME280;48703;51.248;-0.546;2023-07-29T16:12:11;100096;;;20.87;67.20
62632;BME280;48703;51.248;-0.546;2023-07-29T16:15:13;100096;;;20.86;66.84
62632;BME280;48703;51.248;-0.546;2023-07-29T16:18:15;100096;;;20.85;66.99
62632;BME280;48703;51.248;-0.546;2023-07-29T16:21:17;100093;;;20.83;67.26